Time;durP1;ratioP1;P1;durP2;ratioP2;P2;SDS_P1;SDS_P2;PMS_P1;PMS_P2;Temp;Humidity;BMP_temperature;BMP_pressure;BME280_temperature;BME280_humidity;BME280_pressure;Samples;Min_cycle;Max_cycle;Signal;HPM_P1;HPM_P2
2021/04/16 00:00:38;;;;;;;1.47;1.10;;;;;;;;;;5023554;28;20210;-77
2021/04/16 00:03:05;;;;;;;1.10;1.00;;;;;;;;;;5020027;28;20273;-77
2021/04/16 00:05:31;;;;;;;1.20;0.93;;;;;;;;;;5025347;28;20186;-75
2021/04/16 00:07:57;;;;;;;1.70;1.10;;;;;;;;;;5031418;28;20240;-77
2021/04/16 00:10:36;;;;;;;1.70;1.20;;;;;;;;;;5026735;28;20210;-77
2021/04/16 00:13:03;;;;;;;1.43;1.10;;;;;;;;;;5026796;28;20218;-77
2021/04/16 00:15:30;;;;;;;4.47;1.40;;;;;;;;;;5031588;28;20272;-77
2021/04/16 00:17:55;;;;;;;1.50;1.40;;;;;;;;;;5029977;28;20195;-77
2021/04/16 00:20:23;;;;;;;2.40;1.60;;;;;;;;;;5022461;28;20264;-77
2021/04/16 00:22:48;;;;;;;1.50;1.23;;;;;;;;;;5023046;28;20270;-77
2021/04/16 00:25:17;;;;;;;1.93;1.03;;;;;;;;;;5024357;28;20340;-77
2021/04/16 00:27:43;;;;;;;1.30;1.10;;;;;;;;;;5029425;28;20252;-77
2021/04/16 00:30:09;;;;;;;1.00;0.90;;;;;;;;;;5022399;28;20314;-76
2021/04/16 00:32:36;;;;;;;1.67;1.10;;;;;;;;;;5022977;28;20669;-77
2021/04/16 00:35:02;;;;;;;3.17;1.20;;;;;;;;;;5029271;28;20198;-77
2021/04/16 00:37:27;;;;;;;1.20;1.00;;;;;;;;;;5003577;28;20663;-76
2021/04/16 00:39:52;;;;;;;1.07;0.90;;;;;;;;;;5027373;28;20210;-77
2021/04/16 00:42:18;;;;;;;2.20;0.90;;;;;;;;;;5030169;28;20642;-77
2021/04/16 00:44:43;;;;;;;1.27;1.10;;;;;;;;;;5031400;28;20182;-78
2021/04/16 00:47:14;;;;;;;1.23;0.93;;;;;;;;;;5031785;28;20266;-78
2021/04/16 00:49:42;;;;;;;1.73;1.17;;;;;;;;;;5024927;28;20219;-77
2021/04/16 00:52:09;;;;;;;1.50;1.00;;;;;;;;;;5026194;28;20190;-76
2021/04/16 00:54:38;;;;;;;2.30;0.90;;;;;;;;;;5027896;28;20207;-77
2021/04/16 00:57:05;;;;;;;2.53;0.90;;;;;;;;;;5029984;28;20273;-77
2021/04/16 00:59:35;;;;;;;1.33;1.17;;;;;;;;;;5025328;28;20749;-77
2021/04/16 01:02:02;;;;;;;1.00;0.90;;;;;;;;;;5021768;28;20209;-76
2021/04/16 01:04:29;;;;;;;2.20;1.00;;;;;;;;;;5028295;28;20665;-77
2021/04/16 01:06:55;;;;;;;1.40;1.10;;;;;;;;;;5031711;28;20636;-76
2021/04/16 01:09:21;;;;;;;1.30;1.07;;;;;;;;;;5026658;28;20219;-78
2021/04/16 01:11:46;;;;;;;1.30;1.20;;;;;;;;;;5026137;28;20253;-77
2021/04/16 01:14:12;;;;;;;1.33;1.10;;;;;;;;;;5030142;28;20268;-77
2021/04/16 01:16:38;;;;;;;1.50;1.20;;;;;;;;;;5025186;28;20237;-77
2021/04/16 01:19:39;;;;;;;1.67;1.37;;;;;;;;;;5033454;28;20245;-77
2021/04/16 01:22:11;;;;;;;2.00;1.50;;;;;;;;;;5018448;28;20195;-77
2021/04/16 01:24:36;;;;;;;2.33;1.80;;;;;;;;;;5029488;28;20191;-76
2021/04/16 01:27:10;;;;;;;2.83;1.53;;;;;;;;;;5027289;28;20187;-77
2021/04/16 01:29:39;;;;;;;1.90;1.20;;;;;;;;;;5024745;28;20687;-77
2021/04/16 01:32:05;;;;;;;1.90;1.30;;;;;;;;;;5029216;28;20203;-77
2021/04/16 01:34:30;;;;;;;1.60;1.30;;;;;;;;;;5028221;28;20225;-76
2021/04/16 01:36:57;;;;;;;2.77;1.30;;;;;;;;;;5023665;28;20689;-77
2021/04/16 01:39:26;;;;;;;1.10;1.00;;;;;;;;;;5029302;28;20210;-77
2021/04/16 01:41:52;;;;;;;1.03;0.90;;;;;;;;;;5009269;28;20232;-76
2021/04/16 01:44:20;;;;;;;1.10;1.00;;;;;;;;;;5030517;28;20187;-77
2021/04/16 01:46:57;;;;;;;2.37;1.20;;;;;;;;;;5031496;28;20186;-77
2021/04/16 01:49:24;;;;;;;2.97;1.67;;;;;;;;;;5026548;28;20231;-77
2021/04/16 01:51:51;;;;;;;3.07;1.73;;;;;;;;;;5024027;28;20565;-77
2021/04/16 01:54:29;;;;;;;3.13;1.47;;;;;;;;;;5026725;28;20324;-77
2021/04/16 01:57:05;;;;;;;2.00;1.40;;;;;;;;;;5028363;28;20217;-75
2021/04/16 01:59:33;;;;;;;2.97;1.30;;;;;;;;;;5022223;28;20223;-77
2021/04/16 02:01:59;;;;;;;2.43;1.20;;;;;;;;;;5020314;28;20190;-76
2021/04/16 02:04:24;;;;;;;3.67;1.67;;;;;;;;;;5026539;28;20553;-77
2021/04/16 02:06:51;;;;;;;3.43;1.90;;;;;;;;;;5026911;28;20236;-77
2021/04/16 02:09:20;;;;;;;2.90;1.40;;;;;;;;;;5021596;28;20226;-77
2021/04/16 02:11:46;;;;;;;1.20;1.03;;;;;;;;;;5021494;28;20324;-77
2021/04/16 02:14:13;;;;;;;1.13;1.00;;;;;;;;;;5018233;28;20258;-75
2021/04/16 02:16:43;;;;;;;2.90;1.00;;;;;;;;;;5019706;28;20286;-77
2021/04/16 02:19:09;;;;;;;1.83;1.10;;;;;;;;;;5024357;28;20725;-77
2021/04/16 02:21:34;;;;;;;1.73;1.00;;;;;;;;;;5026584;28;20198;-76
2021/04/16 02:24:00;;;;;;;1.83;1.10;;;;;;;;;;5026765;28;20206;-77
2021/04/16 02:26:26;;;;;;;1.77;1.20;;;;;;;;;;5027012;28;20684;-77
2021/04/16 02:28:51;;;;;;;3.70;1.10;;;;;;;;;;5029419;28;20211;-77
2021/04/16 02:31:16;;;;;;;2.43;1.30;;;;;;;;;;5018804;28;20281;-75
2021/04/16 02:33:42;;;;;;;2.53;1.30;;;;;;;;;;5017742;28;20201;-77
2021/04/16 02:36:07;;;;;;;1.43;1.00;;;;;;;;;;5024560;28;20338;-77
2021/04/16 02:38:33;;;;;;;1.30;1.10;;;;;;;;;;5024956;28;20280;-77
2021/04/16 02:40:58;;;;;;;1.90;1.10;;;;;;;;;;5028196;28;20551;-77
2021/04/16 02:43:23;;;;;;;1.53;1.20;;;;;;;;;;5024778;28;20198;-75
2021/04/16 02:45:48;;;;;;;1.17;1.00;;;;;;;;;;5006606;28;20587;-77
2021/04/16 02:48:14;;;;;;;1.57;1.20;;;;;;;;;;5023028;28;20194;-77
2021/04/16 02:50:39;;;;;;;1.67;1.30;;;;;;;;;;5027656;28;20195;-75
2021/04/16 02:53:04;;;;;;;1.40;1.20;;;;;;;;;;5014085;28;20222;-75
2021/04/16 02:55:30;;;;;;;1.67;1.20;;;;;;;;;;5024433;28;20732;-76
2021/04/16 02:57:55;;;;;;;4.30;1.23;;;;;;;;;;5019556;28;20194;-75
2021/04/16 03:00:24;;;;;;;1.53;1.10;;;;;;;;;;5018715;28;20220;-76
2021/04/16 03:02:53;;;;;;;4.23;1.50;;;;;;;;;;5025150;28;20190;-75
2021/04/16 03:05:18;;;;;;;1.63;1.53;;;;;;;;;;5020154;28;20583;-76
2021/04/16 03:07:44;;;;;;;2.27;1.40;;;;;;;;;;5028454;28;20194;-77
2021/04/16 03:10:11;;;;;;;1.27;1.10;;;;;;;;;;5024700;28;20206;-77
2021/04/16 03:12:36;;;;;;;2.87;1.30;;;;;;;;;;5028313;28;20198;-77
2021/04/16 03:15:02;;;;;;;2.07;1.50;;;;;;;;;;5003651;28;20211;-77
2021/04/16 03:17:28;;;;;;;1.80;1.30;;;;;;;;;;5022913;28;20190;-78
2021/04/16 03:19:53;;;;;;;2.20;1.60;;;;;;;;;;5026334;28;20206;-77
2021/04/16 03:22:20;;;;;;;1.33;1.17;;;;;;;;;;5026121;28;20214;-77
2021/04/16 03:24:45;;;;;;;2.27;1.40;;;;;;;;;;5028030;28;20721;-75
2021/04/16 03:27:10;;;;;;;1.57;1.40;;;;;;;;;;5029121;28;20265;-77
2021/04/16 03:29:36;;;;;;;2.97;1.37;;;;;;;;;;5027839;28;20206;-76
2021/04/16 03:32:01;;;;;;;2.03;1.40;;;;;;;;;;5023109;28;20195;-77
2021/04/16 03:34:27;;;;;;;1.60;1.20;;;;;;;;;;5007967;28;20210;-77
2021/04/16 03:36:52;;;;;;;1.80;1.20;;;;;;;;;;5029787;28;20179;-77
2021/04/16 03:39:17;;;;;;;2.10;1.43;;;;;;;;;;5021330;28;20206;-77
2021/04/16 03:41:43;;;;;;;1.10;1.00;;;;;;;;;;5017566;28;20194;-76
2021/04/16 03:44:08;;;;;;;1.53;1.10;;;;;;;;;;5028029;28;20191;-77
2021/04/16 03:46:33;;;;;;;2.70;1.40;;;;;;;;;;5027931;28;20195;-77
2021/04/16 03:48:58;;;;;;;1.30;1.13;;;;;;;;;;5032048;28;20218;-77
2021/04/16 03:51:24;;;;;;;3.57;1.13;;;;;;;;;;5028924;28;20285;-77
2021/04/16 03:53:49;;;;;;;2.50;1.30;;;;;;;;;;5031515;28;20194;-77
2021/04/16 03:56:15;;;;;;;3.17;1.53;;;;;;;;;;5023007;28;20191;-77
2021/04/16 03:58:42;;;;;;;2.20;1.30;;;;;;;;;;5026847;28;20309;-77
2021/04/16 04:01:08;;;;;;;2.33;1.30;;;;;;;;;;5028037;28;20198;-77
2021/04/16 04:03:34;;;;;;;4.67;1.40;;;;;;;;;;5025371;28;20198;-77
2021/04/16 04:06:00;;;;;;;1.17;1.07;;;;;;;;;;5027773;28;20580;-77
2021/04/16 04:08:25;;;;;;;1.77;1.33;;;;;;;;;;5023850;28;20206;-77
2021/04/16 04:10:51;;;;;;;2.80;1.30;;;;;;;;;;5024880;28;20203;-77
2021/04/16 04:13:16;;;;;;;2.03;1.13;;;;;;;;;;5025847;28;20199;-76
2021/04/16 04:15:41;;;;;;;2.03;1.33;;;;;;;;;;5029662;28;20214;-77
2021/04/16 04:18:07;;;;;;;2.17;1.33;;;;;;;;;;5019216;28;20178;-77
2021/04/16 04:20:35;;;;;;;4.13;1.17;;;;;;;;;;5022413;28;20338;-76
2021/04/16 04:23:02;;;;;;;4.03;1.53;;;;;;;;;;5020149;28;20199;-75
2021/04/16 04:25:29;;;;;;;2.03;1.60;;;;;;;;;;5023947;28;20218;-75
2021/04/16 04:27:57;;;;;;;2.33;1.40;;;;;;;;;;5020037;28;20631;-76
2021/04/16 04:30:26;;;;;;;2.30;1.73;;;;;;;;;;5022498;28;20215;-77
2021/04/16 04:32:52;;;;;;;1.70;1.57;;;;;;;;;;5023292;28;20558;-76
2021/04/16 04:35:18;;;;;;;3.27;1.60;;;;;;;;;;5000909;28;20218;-76
2021/04/16 04:37:43;;;;;;;5.43;1.90;;;;;;;;;;5002200;28;20195;-76
2021/04/16 04:40:10;;;;;;;3.27;1.60;;;;;;;;;;5016357;28;20215;-77
2021/04/16 04:42:35;;;;;;;2.90;1.83;;;;;;;;;;5026812;28;20198;-77
2021/04/16 04:45:01;;;;;;;2.40;1.37;;;;;;;;;;5026457;28;20197;-76
2021/04/16 04:47:26;;;;;;;3.03;1.93;;;;;;;;;;5027345;28;20187;-75
2021/04/16 04:49:52;;;;;;;2.43;1.80;;;;;;;;;;5027678;28;20264;-75
2021/04/16 04:52:23;;;;;;;2.77;1.90;;;;;;;;;;5032344;28;20198;-76
2021/04/16 04:54:51;;;;;;;4.23;1.90;;;;;;;;;;5030437;28;20221;-75
2021/04/16 04:57:19;;;;;;;3.67;1.80;;;;;;;;;;5024352;28;20657;-77
2021/04/16 04:59:45;;;;;;;3.37;1.87;;;;;;;;;;5022852;28;20211;-77
2021/04/16 05:02:12;;;;;;;1.67;1.57;;;;;;;;;;5011047;28;20194;-76
2021/04/16 05:04:37;;;;;;;3.67;2.07;;;;;;;;;;5013184;28;20218;-76
2021/04/16 05:07:03;;;;;;;3.50;1.83;;;;;;;;;;5027540;28;20221;-78
2021/04/16 05:09:29;;;;;;;1.90;1.70;;;;;;;;;;5030221;28;20623;-76
2021/04/16 05:11:56;;;;;;;3.53;2.00;;;;;;;;;;5024012;28;20202;-75
2021/04/16 05:14:21;;;;;;;4.47;2.00;;;;;;;;;;5019791;28;20711;-77
2021/04/16 05:16:47;;;;;;;2.53;2.03;;;;;;;;;;5029936;28;20198;-76
2021/04/16 05:19:12;;;;;;;4.40;2.10;;;;;;;;;;5019945;28;20234;-76
2021/04/16 05:21:39;;;;;;;4.47;2.10;;;;;;;;;;5020175;28;20255;-77
2021/04/16 05:24:06;;;;;;;3.80;2.00;;;;;;;;;;5017286;28;20195;-77
2021/04/16 05:26:31;;;;;;;3.20;2.60;;;;;;;;;;5029989;28;20185;-76
2021/04/16 05:28:56;;;;;;;3.50;2.23;;;;;;;;;;5027255;28;20623;-75
2021/04/16 05:31:21;;;;;;;2.47;2.10;;;;;;;;;;5021567;28;20198;-75
2021/04/16 05:33:47;;;;;;;4.13;1.97;;;;;;;;;;5009687;28;20198;-75
2021/04/16 05:36:12;;;;;;;2.67;2.10;;;;;;;;;;5024928;28;20210;-76
2021/04/16 05:38:37;;;;;;;4.90;2.67;;;;;;;;;;5028946;28;20682;-76
2021/04/16 05:41:03;;;;;;;3.00;2.00;;;;;;;;;;5028308;28;20198;-75
2021/04/16 05:43:28;;;;;;;3.20;2.07;;;;;;;;;;5021163;28;20202;-77
2021/04/16 05:45:53;;;;;;;2.73;2.00;;;;;;;;;;5030488;28;20194;-77
2021/04/16 05:48:19;;;;;;;2.80;2.13;;;;;;;;;;5013921;28;20223;-76
2021/04/16 05:50:44;;;;;;;4.10;2.30;;;;;;;;;;5018204;28;20710;-79
2021/04/16 05:53:09;;;;;;;4.87;2.30;;;;;;;;;;5003984;28;20279;-75
2021/04/16 05:55:34;;;;;;;5.63;2.50;;;;;;;;;;5019790;28;20215;-78
2021/04/16 05:58:00;;;;;;;4.40;2.03;;;;;;;;;;5007077;28;20664;-75
2021/04/16 06:00:25;;;;;;;4.60;2.50;;;;;;;;;;5025929;28;20910;-76
2021/04/16 06:02:51;;;;;;;3.23;2.30;;;;;;;;;;5025320;28;20274;-75
2021/04/16 06:05:18;;;;;;;2.77;2.00;;;;;;;;;;5021148;28;20182;-78
2021/04/16 06:07:44;;;;;;;4.67;2.40;;;;;;;;;;5023993;28;20321;-75
2021/04/16 06:10:15;;;;;;;5.97;2.37;;;;;;;;;;5009424;28;20322;-76
2021/04/16 06:12:43;;;;;;;4.23;2.43;;;;;;;;;;5023610;28;20412;-78
2021/04/16 06:15:12;;;;;;;4.97;2.83;;;;;;;;;;5009956;28;20206;-78
2021/04/16 06:17:38;;;;;;;11.03;3.80;;;;;;;;;;5012787;28;20195;-76
2021/04/16 06:20:04;;;;;;;5.77;2.50;;;;;;;;;;5030006;28;20218;-78
2021/04/16 06:22:30;;;;;;;3.77;2.00;;;;;;;;;;5025372;28;20210;-80
2021/04/16 06:24:55;;;;;;;3.10;2.20;;;;;;;;;;5036496;28;20194;-80
2021/04/16 06:27:20;;;;;;;5.70;3.10;;;;;;;;;;5018483;28;20190;-81
2021/04/16 06:29:46;;;;;;;4.23;2.23;;;;;;;;;;5035757;28;20236;-80
2021/04/16 06:32:14;;;;;;;3.17;1.90;;;;;;;;;;5034738;28;20203;-79
2021/04/16 06:34:39;;;;;;;6.50;2.20;;;;;;;;;;5029568;28;20210;-75
2021/04/16 06:37:05;;;;;;;3.97;2.10;;;;;;;;;;5020716;28;20852;-77
2021/04/16 06:39:30;;;;;;;3.07;2.10;;;;;;;;;;5027947;28;20222;-75
2021/04/16 06:41:56;;;;;;;2.57;2.10;;;;;;;;;;5009051;28;20635;-76
2021/04/16 06:44:31;;;;;;;5.77;2.57;;;;;;;;;;5023781;28;20276;-77
2021/04/16 06:47:02;;;;;;;4.47;2.13;;;;;;;;;;5030758;28;20190;-76
2021/04/16 06:49:29;;;;;;;2.50;2.13;;;;;;;;;;5020977;28;20225;-75
2021/04/16 06:52:07;;;;;;;4.37;2.50;;;;;;;;;;5006153;28;20290;-76
2021/04/16 06:54:58;;;;;;;4.60;2.10;;;;;;;;;;5019019;28;20686;-77
2021/04/16 06:57:27;;;;;;;2.80;2.27;;;;;;;;;;4952095;28;20203;-77
2021/04/16 07:00:00;;;;;;;6.43;3.13;;;;;;;;;;5017830;28;20231;-77
2021/04/16 07:02:34;;;;;;;2.73;2.10;;;;;;;;;;5024593;28;20210;-77
2021/04/16 07:05:00;;;;;;;5.73;2.40;;;;;;;;;;5026286;28;20558;-77
2021/04/16 07:07:36;;;;;;;3.27;2.17;;;;;;;;;;5023846;28;20203;-77
2021/04/16 07:10:20;;;;;;;3.17;2.43;;;;;;;;;;5025394;28;20210;-77
2021/04/16 07:12:46;;;;;;;2.90;2.27;;;;;;;;;;5031400;28;20202;-77
2021/04/16 07:15:17;;;;;;;3.67;2.20;;;;;;;;;;5023046;28;20217;-77
2021/04/16 07:17:46;;;;;;;3.87;2.20;;;;;;;;;;5031646;28;20202;-78
2021/04/16 07:20:14;;;;;;;3.20;1.87;;;;;;;;;;5025931;28;20760;-78
2021/04/16 07:22:49;;;;;;;3.47;2.10;;;;;;;;;;5029536;28;20187;-77
2021/04/16 07:25:27;;;;;;;3.53;2.63;;;;;;;;;;5023113;28;20185;-78
2021/04/16 07:27:56;;;;;;;3.20;1.93;;;;;;;;;;5031722;28;20206;-78
2021/04/16 07:30:43;;;;;;;2.50;2.30;;;;;;;;;;5030675;28;20218;-77
2021/04/16 07:33:43;;;;;;;2.50;2.00;;;;;;;;;;5029630;28;20277;-76
2021/04/16 07:36:22;;;;;;;5.53;1.93;;;;;;;;;;5026032;28;20210;-76
2021/04/16 07:39:14;;;;;;;4.13;1.77;;;;;;;;;;5009577;28;20271;-77
2021/04/16 07:41:43;;;;;;;2.03;1.50;;;;;;;;;;5006707;28;20199;-77
2021/04/16 07:44:33;;;;;;;4.23;1.80;;;;;;;;;;5018860;28;20195;-77
2021/04/16 07:47:05;;;;;;;3.83;1.67;;;;;;;;;;5031436;28;20187;-77
2021/04/16 07:49:33;;;;;;;3.93;1.77;;;;;;;;;;5023991;28;20210;-77
2021/04/16 07:52:17;;;;;;;5.40;1.80;;;;;;;;;;5029403;28;20186;-77
2021/04/16 07:55:03;;;;;;;3.33;1.67;;;;;;;;;;5029163;28;20212;-77
2021/04/16 07:57:29;;;;;;;2.15;1.58;;;;;;;;;;5029873;28;20244;-76
2021/04/16 08:00:00;;;;;;;3.22;1.70;;;;;;;;;;5030232;28;20217;-78
2021/04/16 08:02:30;;;;;;;2.47;1.80;;;;;;;;;;5024113;28;20245;-77
2021/04/16 08:04:56;;;;;;;2.58;2.05;;;;;;;;;;5030536;28;20186;-76
2021/04/16 08:07:31;;;;;;;4.03;1.80;;;;;;;;;;5031116;28;20201;-77
2021/04/16 08:09:58;;;;;;;2.10;1.70;;;;;;;;;;5033073;28;20805;-78
2021/04/16 08:12:26;;;;;;;2.75;1.50;;;;;;;;;;5009731;28;20259;-78
2021/04/16 08:15:11;;;;;;;1.70;1.60;;;;;;;;;;5031254;28;20206;-79
2021/04/16 08:17:37;;;;;;;2.55;1.75;;;;;;;;;;5034827;28;20174;-79
2021/04/16 08:20:28;;;;;;;2.17;1.60;;;;;;;;;;5034728;28;20610;-79
2021/04/16 08:22:55;;;;;;;6.78;1.85;;;;;;;;;;5028078;28;20182;-79
2021/04/16 08:25:32;;;;;;;2.88;1.67;;;;;;;;;;5031488;28;20187;-78
2021/04/16 08:28:06;;;;;;;1.65;1.45;;;;;;;;;;5033990;28;20713;-77
2021/04/16 08:30:48;;;;;;;1.70;1.60;;;;;;;;;;5028676;28;20218;-77
2021/04/16 08:33:19;;;;;;;2.60;1.80;;;;;;;;;;5029139;28;20661;-78
2021/04/16 08:36:00;;;;;;;2.28;1.75;;;;;;;;;;5036751;28;20215;-77
2021/04/16 08:38:30;;;;;;;2.80;1.80;;;;;;;;;;5029360;28;20250;-78
2021/04/16 08:41:01;;;;;;;1.67;1.58;;;;;;;;;;5022210;28;20203;-80
2021/04/16 08:43:32;;;;;;;2.88;1.80;;;;;;;;;;5036896;28;20570;-80
2021/04/16 08:46:09;;;;;;;2.20;1.60;;;;;;;;;;5036208;28;20665;-80
2021/04/16 08:48:38;;;;;;;2.17;1.55;;;;;;;;;;5023167;28;20202;-80
2021/04/16 08:51:08;;;;;;;2.05;1.80;;;;;;;;;;5038853;28;20187;-81
2021/04/16 08:53:33;;;;;;;3.03;1.70;;;;;;;;;;5039070;28;20186;-80
2021/04/16 08:56:16;;;;;;;1.88;1.42;;;;;;;;;;5036872;28;20218;-80
2021/04/16 08:58:42;;;;;;;5.75;1.52;;;;;;;;;;5028392;28;20581;-79
2021/04/16 09:01:07;;;;;;;1.88;1.20;;;;;;;;;;5037919;28;20710;-80
2021/04/16 09:03:52;;;;;;;2.00;1.43;;;;;;;;;;5031581;28;20230;-79
2021/04/16 09:06:25;;;;;;;2.00;1.80;;;;;;;;;;5032785;28;20481;-79
2021/04/16 09:08:53;;;;;;;2.50;1.67;;;;;;;;;;5018475;28;20777;-79
2021/04/16 09:11:57;;;;;;;2.15;1.63;;;;;;;;;;5027525;28;20191;-80
2021/04/16 09:14:25;;;;;;;3.85;1.30;;;;;;;;;;5033722;28;20726;-79
2021/04/16 09:16:53;;;;;;;1.48;1.38;;;;;;;;;;5036672;28;20196;-81
2021/04/16 09:19:24;;;;;;;1.73;1.23;;;;;;;;;;5038776;28;20666;-81
2021/04/16 09:22:01;;;;;;;3.15;1.63;;;;;;;;;;5030038;28;20179;-79
2021/04/16 09:24:47;;;;;;;3.83;1.50;;;;;;;;;;5037329;28;20587;-78
2021/04/16 09:27:40;;;;;;;2.70;1.38;;;;;;;;;;5033223;28;20609;-80
2021/04/16 09:30:06;;;;;;;2.17;1.48;;;;;;;;;;5032753;28;20259;-81
2021/04/16 09:32:32;;;;;;;5.05;1.60;;;;;;;;;;5040405;28;20237;-78
2021/04/16 09:35:05;;;;;;;4.32;1.80;;;;;;;;;;5036994;28;20208;-81
2021/04/16 09:37:45;;;;;;;3.28;1.40;;;;;;;;;;5037712;28;20226;-80
2021/04/16 09:40:19;;;;;;;2.30;1.42;;;;;;;;;;5025520;28;20215;-81
2021/04/16 09:42:49;;;;;;;2.90;1.45;;;;;;;;;;5029518;28;20194;-79
2021/04/16 09:45:34;;;;;;;4.20;1.70;;;;;;;;;;5029981;28;20242;-78
2021/04/16 09:48:07;;;;;;;2.60;1.20;;;;;;;;;;5036960;28;20195;-79
2021/04/16 09:50:47;;;;;;;1.67;1.45;;;;;;;;;;5029756;28;20234;-81
2021/04/16 09:53:19;;;;;;;1.55;1.40;;;;;;;;;;5023827;28;20278;-81
2021/04/16 09:56:08;;;;;;;1.55;1.42;;;;;;;;;;5032289;28;20241;-80
2021/04/16 09:58:42;;;;;;;2.22;1.40;;;;;;;;;;5029011;28;20210;-78
2021/04/16 10:01:16;;;;;;;3.08;1.38;;;;;;;;;;5022510;28;20195;-79
2021/04/16 10:03:44;;;;;;;3.10;1.70;;;;;;;;;;5023356;28;20290;-79
2021/04/16 10:06:32;;;;;;;2.75;1.60;;;;;;;;;;5028977;28;20183;-79
2021/04/16 10:09:16;;;;;;;3.78;1.50;;;;;;;;;;5027218;28;20210;-79
2021/04/16 10:11:57;;;;;;;1.80;1.48;;;;;;;;;;5029017;28;20245;-76
2021/04/16 10:14:32;;;;;;;2.35;1.30;;;;;;;;;;5028058;28;20181;-78
2021/04/16 10:17:03;;;;;;;2.17;1.23;;;;;;;;;;5032181;28;20301;-77
2021/04/16 10:19:39;;;;;;;5.03;1.65;;;;;;;;;;5030034;28;20220;-78
2021/04/16 10:22:09;;;;;;;1.40;1.30;;;;;;;;;;5028116;28;20805;-77
2021/04/16 10:59:50;;;;;;;2.08;1.30;;;;;;;;;;5029719;28;20580;-77
2021/04/16 12:39:01;;;;;;;1.30;1.20;;;;;;;;;;5038993;28;20268;-80
2021/04/16 12:41:35;;;;;;;2.42;1.50;;;;;;;;;;5029680;28;20196;-79
2021/04/16 12:44:00;;;;;;;2.72;1.70;;;;;;;;;;5025451;28;20233;-80
2021/04/16 12:46:33;;;;;;;2.47;1.30;;;;;;;;;;5035360;28;20588;-79
2021/04/16 12:48:59;;;;;;;2.00;1.50;;;;;;;;;;5036904;28;20206;-80
2021/04/16 12:51:24;;;;;;;3.65;1.45;;;;;;;;;;5032175;28;20646;-79
2021/04/16 12:53:49;;;;;;;2.80;1.70;;;;;;;;;;5029659;28;20186;-80
2021/04/16 12:56:26;;;;;;;1.77;1.48;;;;;;;;;;5026260;28;20232;-80
2021/04/16 12:59:01;;;;;;;2.50;1.40;;;;;;;;;;5034234;28;20214;-79
2021/04/16 13:01:30;;;;;;;1.90;1.30;;;;;;;;;;5026961;28;20297;-78
2021/04/16 13:03:57;;;;;;;3.58;1.70;;;;;;;;;;5019418;28;22201;-79
2021/04/16 13:06:25;;;;;;;2.50;1.65;;;;;;;;;;5036556;28;20198;-78
2021/04/16 13:08:53;;;;;;;2.13;1.58;;;;;;;;;;5035005;28;20207;-79
2021/04/16 13:11:19;;;;;;;2.85;1.67;;;;;;;;;;5028676;28;20211;-79
2021/04/16 13:13:44;;;;;;;2.65;1.70;;;;;;;;;;5035987;28;20252;-79
2021/04/16 13:16:10;;;;;;;3.47;1.50;;;;;;;;;;5027427;28;20203;-79
2021/04/16 13:18:40;;;;;;;2.55;1.80;;;;;;;;;;5033095;28;20211;-79
2021/04/16 13:21:11;;;;;;;5.70;2.00;;;;;;;;;;5028763;28;20718;-79
2021/04/16 13:23:37;;;;;;;1.67;1.50;;;;;;;;;;5037290;28;20437;-77
2021/04/16 13:26:04;;;;;;;1.70;1.50;;;;;;;;;;5035968;28;20182;-80
2021/04/16 13:28:31;;;;;;;1.40;1.30;;;;;;;;;;5036876;28;20657;-79
2021/04/16 13:30:57;;;;;;;2.22;1.40;;;;;;;;;;5035923;28;20191;-80
2021/04/16 13:33:22;;;;;;;4.82;1.73;;;;;;;;;;5039357;28;20216;-81
2021/04/16 13:35:54;;;;;;;3.05;1.50;;;;;;;;;;5028706;28;20317;-81
2021/04/16 13:38:25;;;;;;;2.35;1.60;;;;;;;;;;5036804;28;20190;-81
2021/04/16 13:40:52;;;;;;;1.52;1.42;;;;;;;;;;5036488;28;20187;-79
2021/04/16 13:43:18;;;;;;;2.33;1.63;;;;;;;;;;5027210;28;20191;-81
2021/04/16 13:45:43;;;;;;;1.92;1.55;;;;;;;;;;5032364;28;20270;-79
2021/04/16 13:48:09;;;;;;;2.25;1.60;;;;;;;;;;5023147;28;20187;-79
2021/04/16 13:50:34;;;;;;;2.72;1.58;;;;;;;;;;5026209;28;20207;-78
2021/04/16 13:53:00;;;;;;;1.63;1.48;;;;;;;;;;5026634;28;20254;-81
2021/04/16 13:55:25;;;;;;;2.40;1.67;;;;;;;;;;5033038;28;20210;-80
2021/04/16 13:57:51;;;;;;;1.98;1.60;;;;;;;;;;5036729;28;20264;-81
2021/04/16 14:00:20;;;;;;;1.63;1.42;;;;;;;;;;5032580;28;20571;-80
2021/04/16 14:02:49;;;;;;;2.10;1.52;;;;;;;;;;5034265;28;20214;-80
2021/04/16 14:05:18;;;;;;;2.33;1.50;;;;;;;;;;5025812;28;20179;-78
2021/04/16 14:07:44;;;;;;;2.25;1.80;;;;;;;;;;5029284;28;20647;-78
2021/04/16 14:10:11;;;;;;;7.78;1.83;;;;;;;;;;5031624;28;20233;-81
2021/04/16 14:12:41;;;;;;;2.58;2.20;;;;;;;;;;5025288;28;20218;-81
2021/04/16 14:15:08;;;;;;;3.67;2.03;;;;;;;;;;5018120;28;20214;-81
2021/04/16 14:17:40;;;;;;;2.50;1.85;;;;;;;;;;5035015;28;20183;-80
2021/04/16 14:20:13;;;;;;;2.47;1.73;;;;;;;;;;5029032;28;20203;-81
2021/04/16 14:22:42;;;;;;;2.30;1.85;;;;;;;;;;5035714;28;20183;-78
2021/04/16 14:25:11;;;;;;;4.15;1.80;;;;;;;;;;5034825;28;20194;-79
2021/04/16 14:27:37;;;;;;;2.38;1.67;;;;;;;;;;5026145;28;20191;-79
2021/04/16 14:30:15;;;;;;;6.10;2.63;;;;;;;;;;5030189;28;20257;-81
2021/04/16 14:32:41;;;;;;;4.60;2.20;;;;;;;;;;5027450;28;20251;-80
2021/04/16 14:35:07;;;;;;;3.50;2.23;;;;;;;;;;5026146;28;20234;-80
2021/04/16 14:37:32;;;;;;;3.10;2.10;;;;;;;;;;5031775;28;20183;-81
2021/04/16 14:39:58;;;;;;;1.85;1.50;;;;;;;;;;5032089;28;20271;-79
2021/04/16 14:42:23;;;;;;;2.93;1.60;;;;;;;;;;5035578;28;20179;-79
2021/04/16 14:44:48;;;;;;;2.97;1.77;;;;;;;;;;5027274;28;20197;-80
2021/04/16 14:47:14;;;;;;;4.17;1.90;;;;;;;;;;5031014;28;20214;-78
2021/04/16 14:49:39;;;;;;;2.27;1.70;;;;;;;;;;5034552;28;20201;-78
2021/04/16 14:52:09;;;;;;;2.83;1.70;;;;;;;;;;5032358;28;20194;-80
2021/04/16 14:54:42;;;;;;;2.57;1.70;;;;;;;;;;5012894;28;20225;-76
2021/04/16 14:57:18;;;;;;;5.43;1.83;;;;;;;;;;5021704;28;20277;-77
2021/04/16 14:59:48;;;;;;;1.93;1.60;;;;;;;;;;4970970;28;20239;-78
2021/04/16 15:02:13;;;;;;;2.57;1.80;;;;;;;;;;4962390;28;20275;-76
2021/04/16 15:04:38;;;;;;;2.77;1.53;;;;;;;;;;4970501;28;20726;-76
2021/04/16 15:07:06;;;;;;;4.17;1.70;;;;;;;;;;4960592;28;20287;-76
2021/04/16 15:09:37;;;;;;;3.87;1.70;;;;;;;;;;4965902;28;20218;-75
2021/04/16 15:12:03;;;;;;;4.90;2.50;;;;;;;;;;4976514;28;76607;-76
2021/04/16 15:14:30;;;;;;;2.37;1.47;;;;;;;;;;5007620;28;20194;-78
2021/04/16 15:16:56;;;;;;;2.27;1.30;;;;;;;;;;5010283;28;20202;-77
2021/04/16 15:19:46;;;;;;;4.00;1.27;;;;;;;;;;5001415;28;20203;-76
2021/04/16 15:22:24;;;;;;;2.10;1.33;;;;;;;;;;5023230;28;20253;-76
2021/04/16 15:24:52;;;;;;;2.70;1.50;;;;;;;;;;4999861;28;20187;-77
2021/04/16 15:27:23;;;;;;;2.50;1.40;;;;;;;;;;4997951;28;20651;-77
2021/04/16 15:29:52;;;;;;;2.40;1.83;;;;;;;;;;5011378;28;20223;-78
2021/04/16 15:32:21;;;;;;;3.90;2.90;;;;;;;;;;5005457;28;20720;-77
2021/04/16 15:46:10;;;;;;;3.47;2.03;;;;;;;;;;5000608;28;20253;-75
2021/04/16 15:48:38;;;;;;;6.43;1.60;;;;;;;;;;4999477;28;20206;-76
2021/04/16 15:51:07;;;;;;;2.40;1.70;;;;;;;;;;5004239;28;20191;-76
2021/04/16 15:53:32;;;;;;;2.90;1.73;;;;;;;;;;5004429;28;20194;-75
2021/04/16 15:55:59;;;;;;;3.10;1.30;;;;;;;;;;5002211;28;20287;-75
2021/04/16 15:58:32;;;;;;;2.90;1.30;;;;;;;;;;5003989;28;20238;-75
2021/04/16 16:01:00;;;;;;;2.93;1.47;;;;;;;;;;5002879;28;20277;-75
2021/04/16 16:03:25;;;;;;;1.97;1.57;;;;;;;;;;5006886;28;20202;-76
2021/04/16 16:05:51;;;;;;;4.23;1.67;;;;;;;;;;4996400;28;20676;-75
2021/04/16 16:08:17;;;;;;;3.30;1.70;;;;;;;;;;5005984;28;20187;-75
2021/04/16 16:10:45;;;;;;;2.63;1.30;;;;;;;;;;5003393;28;20200;-76
2021/04/16 16:13:27;;;;;;;1.93;1.27;;;;;;;;;;5002712;28;20199;-76
2021/04/16 16:15:54;;;;;;;4.43;1.27;;;;;;;;;;5000834;28;20566;-76
2021/04/16 16:18:22;;;;;;;3.07;1.73;;;;;;;;;;5008438;28;20195;-76
2021/04/16 16:20:49;;;;;;;2.20;1.30;;;;;;;;;;4999421;28;20597;-76
2021/04/16 16:23:18;;;;;;;3.10;1.37;;;;;;;;;;5004905;28;20196;-76
2021/04/16 16:25:43;;;;;;;4.00;1.43;;;;;;;;;;5003391;28;20192;-76
2021/04/16 16:28:18;;;;;;;2.23;1.47;;;;;;;;;;5003478;28;20206;-78
2021/04/16 16:30:44;;;;;;;2.00;1.13;;;;;;;;;;5008072;28;20191;-78
2021/04/16 16:33:09;;;;;;;2.50;1.40;;;;;;;;;;5008385;28;20192;-77
2021/04/16 16:35:38;;;;;;;1.73;1.43;;;;;;;;;;5009161;28;20218;-77
2021/04/16 16:38:06;;;;;;;2.20;1.50;;;;;;;;;;5008273;28;20187;-76
2021/04/16 16:40:33;;;;;;;3.20;1.30;;;;;;;;;;5006756;28;20203;-77
2021/04/16 16:43:04;;;;;;;1.77;1.20;;;;;;;;;;5005365;28;20721;-77
2021/04/16 16:45:33;;;;;;;2.03;1.30;;;;;;;;;;5004913;28;20527;-77
2021/04/16 16:48:00;;;;;;;3.67;1.53;;;;;;;;;;5005858;28;20207;-76
2021/04/16 16:50:29;;;;;;;1.80;1.40;;;;;;;;;;5003364;28;20306;-77
2021/04/16 16:52:55;;;;;;;2.80;1.30;;;;;;;;;;5005509;28;20179;-76
2021/04/16 16:55:21;;;;;;;2.00;1.20;;;;;;;;;;5006524;28;20705;-76
2021/04/16 16:57:47;;;;;;;2.03;1.27;;;;;;;;;;5006117;28;20191;-77
2021/04/16 17:00:17;;;;;;;1.37;1.20;;;;;;;;;;5008242;28;20574;-77
2021/04/16 17:02:42;;;;;;;3.23;1.17;;;;;;;;;;5003626;28;20190;-76
2021/04/16 17:05:08;;;;;;;1.53;1.33;;;;;;;;;;5007651;28;20196;-76
2021/04/16 17:07:34;;;;;;;3.20;1.40;;;;;;;;;;5006806;28;20687;-77
2021/04/16 17:09:59;;;;;;;3.50;1.23;;;;;;;;;;5007536;28;20215;-76
2021/04/16 17:12:26;;;;;;;2.33;1.30;;;;;;;;;;5004566;28;20257;-76
2021/04/16 17:14:53;;;;;;;1.67;1.20;;;;;;;;;;5004716;28;20195;-76
2021/04/16 17:17:21;;;;;;;3.40;1.40;;;;;;;;;;5008911;28;20188;-77